createdAt,value
2018-08-30T00:00:34.042Z,959.99
2018-08-30T00:01:35.774Z,959.98
2018-08-30T00:02:34.047Z,959.99
2018-08-30T00:03:34.037Z,959.98
2018-08-30T00:04:34.064Z,960.00
2018-08-30T00:05:34.028Z,959.97
2018-08-30T00:06:34.027Z,959.94
2018-08-30T00:07:34.027Z,959.99
2018-08-30T00:08:34.034Z,959.90
2018-08-30T00:09:34.038Z,959.91
2018-08-30T00:10:34.040Z,959.91
2018-08-30T00:11:34.045Z,959.90
2018-08-30T00:12:34.047Z,959.90
2018-08-30T00:13:34.076Z,959.90
2018-08-30T00:14:34.066Z,959.92
2018-08-30T00:15:34.100Z,959.91
2018-08-30T00:16:34.061Z,959.90
2018-08-30T00:17:34.068Z,959.95
2018-08-30T00:18:34.108Z,959.95
2018-08-30T00:19:34.079Z,959.95
2018-08-30T00:20:34.076Z,959.91
2018-08-30T00:21:34.114Z,959.91
2018-08-30T00:22:34.084Z,959.97
2018-08-30T00:23:34.090Z,959.95
2018-08-30T00:24:34.092Z,959.92
2018-08-30T00:25:34.103Z,959.97
2018-08-30T00:26:34.106Z,959.95
2018-08-30T00:27:34.110Z,959.95
2018-08-30T00:28:34.115Z,959.99
2018-08-30T00:29:34.113Z,959.99
2018-08-30T00:30:34.114Z,959.97
2018-08-30T00:31:34.150Z,959.93
2018-08-30T00:32:34.125Z,959.95
2018-08-30T00:33:34.128Z,959.92
2018-08-30T00:34:34.137Z,959.90
2018-08-30T00:35:34.170Z,959.94
2018-08-30T00:36:34.143Z,959.92
2018-08-30T00:37:34.145Z,959.88
2018-08-30T00:38:34.147Z,959.90
2018-08-30T00:39:34.155Z,959.90
2018-08-30T00:40:34.194Z,959.93
2018-08-30T00:41:34.162Z,959.92
2018-08-30T00:42:34.162Z,959.97
2018-08-30T00:43:34.202Z,959.95
2018-08-30T00:44:34.175Z,959.94
2018-08-30T00:45:35.716Z,959.97
2018-08-30T00:46:34.180Z,959.96
2018-08-30T00:47:34.183Z,959.99
2018-08-30T00:48:34.201Z,959.98
2018-08-30T00:49:34.220Z,959.98
2018-08-30T00:50:34.195Z,960.02
2018-08-30T00:51:34.199Z,960.01
2018-08-30T00:52:34.229Z,960.03
2018-08-30T00:53:34.208Z,960.03
2018-08-30T00:54:34.209Z,960.00
2018-08-30T00:55:34.216Z,960.07
2018-08-30T00:56:34.243Z,960.04
2018-08-30T00:57:34.241Z,960.09
2018-08-30T00:58:34.233Z,960.05
2018-08-30T00:59:34.266Z,960.07
2018-08-30T01:00:34.255Z,960.07
2018-08-30T01:01:34.238Z,960.08
2018-08-30T01:02:34.242Z,960.09
2018-08-30T01:03:34.246Z,960.07
2018-08-30T01:04:34.250Z,960.08
2018-08-30T01:05:34.259Z,960.07
2018-08-30T01:06:34.270Z,960.06
2018-08-30T01:07:36.217Z,960.08
2018-08-30T01:08:34.269Z,960.04
2018-08-30T01:09:34.306Z,960.04
2018-08-30T01:10:34.336Z,960.07
2018-08-30T01:11:34.278Z,960.03
2018-08-30T01:12:34.281Z,960.06
2018-08-30T01:13:34.284Z,960.06
2018-08-30T01:14:34.298Z,960.06
2018-08-30T01:15:34.298Z,960.11
2018-08-30T01:16:34.298Z,960.12
2018-08-30T01:17:34.305Z,960.11
2018-08-30T01:18:36.247Z,960.16
2018-08-30T01:19:34.350Z,960.11
2018-08-30T01:20:34.317Z,960.17
2018-08-30T01:21:36.223Z,960.16
2018-08-30T01:22:34.322Z,960.13
2018-08-30T01:23:34.324Z,960.16
2018-08-30T01:24:34.328Z,960.10
2018-08-30T01:25:34.339Z,960.12
2018-08-30T01:26:34.364Z,960.09
2018-08-30T01:27:34.360Z,960.12
2018-08-30T01:28:36.222Z,960.13
2018-08-30T01:29:34.394Z,960.14
2018-08-30T01:30:34.353Z,960.18
2018-08-30T01:31:34.389Z,960.18
2018-08-30T01:32:34.368Z,960.16
2018-08-30T01:33:34.369Z,960.20
2018-08-30T01:34:34.364Z,960.20
2018-08-30T01:35:34.407Z,960.22
2018-08-30T01:36:34.372Z,960.23
2018-08-30T01:37:34.385Z,960.26
2018-08-30T01:38:34.412Z,960.30
2018-08-30T01:39:34.405Z,960.23
2018-08-30T01:40:34.410Z,960.27
2018-08-30T01:41:34.399Z,960.33
2018-08-30T01:42:34.403Z,960.35
2018-08-30T01:43:34.408Z,960.37
2018-08-30T01:44:34.403Z,960.36
2018-08-30T01:45:34.411Z,960.38
2018-08-30T01:46:34.413Z,960.38
2018-08-30T01:47:34.415Z,960.31
2018-08-30T01:48:34.428Z,960.41
2018-08-30T01:49:34.423Z,960.37
2018-08-30T01:50:34.446Z,960.34
2018-08-30T01:51:34.456Z,960.36
2018-08-30T01:52:34.431Z,960.45
2018-08-30T01:53:34.438Z,960.40
2018-08-30T01:54:34.444Z,960.41
2018-08-30T01:55:34.470Z,960.40
2018-08-30T01:56:34.478Z,960.43
2018-08-30T01:57:34.477Z,960.40
2018-08-30T01:58:34.465Z,960.44
2018-08-30T01:59:34.477Z,960.42
2018-08-30T02:00:34.466Z,960.42
2018-08-30T02:01:34.467Z,960.40
2018-08-30T02:02:34.473Z,960.43
2018-08-30T02:03:34.476Z,960.40
2018-08-30T02:04:34.507Z,960.44
2018-08-30T02:05:34.481Z,960.44
2018-08-30T02:06:34.486Z,960.48
2018-08-30T02:07:34.487Z,960.49
2018-08-30T02:08:34.492Z,960.50
2018-08-30T02:09:34.500Z,960.50
2018-08-30T02:10:34.583Z,960.49
2018-08-30T02:11:34.559Z,960.48
2018-08-30T02:12:34.516Z,960.49
2018-08-30T02:13:34.566Z,960.54
2018-08-30T02:14:34.519Z,960.54
2018-08-30T02:15:34.532Z,960.51
2018-08-30T02:16:35.549Z,960.58
2018-08-30T02:17:35.553Z,960.56
2018-08-30T02:18:34.583Z,960.57
2018-08-30T02:19:34.591Z,960.58
2018-08-30T02:20:36.301Z,960.62
2018-08-30T02:21:34.554Z,960.53
2018-08-30T02:22:34.561Z,960.58
2018-08-30T02:23:34.606Z,960.58
2018-08-30T02:24:34.555Z,960.60
2018-08-30T02:25:36.251Z,960.53
2018-08-30T02:26:34.670Z,960.61
2018-08-30T02:27:34.605Z,960.61
2018-08-30T02:28:34.585Z,960.64
2018-08-30T02:29:36.234Z,960.61
2018-08-30T02:30:34.594Z,960.60
2018-08-30T02:31:34.599Z,960.63
2018-08-30T02:32:34.603Z,960.62
2018-08-30T02:33:34.610Z,960.59
2018-08-30T02:34:34.618Z,960.59
2018-08-30T02:35:34.592Z,960.63
2018-08-30T02:36:34.597Z,960.59
2018-08-30T02:37:34.610Z,960.60
2018-08-30T02:38:34.626Z,960.63
2018-08-30T02:39:34.666Z,960.56
2018-08-30T02:40:34.618Z,960.62
2018-08-30T02:41:34.616Z,960.60
2018-08-30T02:42:34.623Z,960.58
2018-08-30T02:43:34.660Z,960.59
2018-08-30T02:44:34.662Z,960.60
2018-08-30T02:45:34.640Z,960.63
2018-08-30T02:46:34.656Z,960.61
2018-08-30T02:47:34.745Z,960.66
2018-08-30T02:48:34.644Z,960.63
2018-08-30T02:49:34.646Z,960.61
2018-08-30T02:50:34.652Z,960.59
2018-08-30T02:51:34.651Z,960.65
2018-08-30T02:52:34.699Z,960.63
2018-08-30T02:53:34.655Z,960.59
2018-08-30T02:54:34.669Z,960.65
2018-08-30T02:55:34.731Z,960.58
2018-08-30T02:56:34.690Z,960.57
2018-08-30T02:57:34.672Z,960.56
2018-08-30T02:58:34.680Z,960.54
2018-08-30T02:59:34.746Z,960.56
2018-08-30T03:00:34.692Z,960.56
2018-08-30T03:01:36.363Z,960.55
2018-08-30T03:02:34.713Z,960.60
2018-08-30T03:03:34.712Z,960.59
2018-08-30T03:04:34.707Z,960.59
2018-08-30T03:05:34.701Z,960.59
2018-08-30T03:06:34.716Z,960.64
2018-08-30T03:07:34.706Z,960.60
2018-08-30T03:08:34.750Z,960.66
2018-08-30T03:11:29.663Z,960.63
2018-08-30T03:20:30.659Z,960.57
2018-08-30T03:26:04.177Z,960.55
2018-08-30T03:27:03.694Z,960.60
2018-08-30T03:28:03.668Z,960.57
2018-08-30T03:29:03.823Z,960.62
2018-08-30T03:30:03.978Z,960.64
2018-08-30T03:31:03.723Z,960.62
2018-08-30T03:32:03.747Z,960.65
2018-08-30T03:33:06.631Z,960.66
2018-08-30T03:53:37.506Z,960.81
2018-08-30T03:54:18.344Z,960.85
2018-08-30T04:05:13.753Z,960.89
2018-08-30T04:06:10.226Z,960.89
2018-08-30T04:09:18.190Z,960.93
2018-08-30T04:11:44.943Z,960.99
2018-08-30T04:13:13.214Z,960.97
2018-08-30T04:19:55.408Z,960.91
2018-08-30T04:27:18.895Z,960.96
2018-08-30T04:42:25.241Z,961.07
2018-08-30T04:44:59.370Z,961.10
2018-08-30T04:49:51.789Z,961.12
2018-08-30T04:50:36.591Z,961.12
2018-08-30T04:51:36.470Z,961.11
2018-08-30T04:52:36.481Z,961.10
2018-08-30T04:53:36.658Z,961.09
2018-08-30T04:54:36.525Z,961.11
2018-08-30T04:55:36.479Z,961.16
2018-08-30T04:56:36.499Z,961.15
2018-08-30T04:57:36.553Z,961.16
2018-08-30T04:58:36.571Z,961.15
2018-08-30T05:14:52.661Z,961.33
2018-08-30T05:15:51.503Z,961.34
2018-08-30T05:16:49.051Z,961.34
2018-08-30T05:17:53.669Z,961.33
2018-08-30T05:18:59.542Z,961.36
2018-08-30T05:19:49.113Z,961.36
2018-08-30T05:21:01.040Z,961.39
2018-08-30T05:21:49.073Z,961.44
2018-08-30T05:25:41.911Z,961.49
2018-08-30T05:26:22.904Z,961.46
2018-08-30T05:29:11.311Z,961.46
2018-08-30T05:30:26.105Z,961.45
2018-08-30T05:31:11.816Z,961.45
2018-08-30T05:32:10.082Z,961.46
2018-08-30T05:33:10.055Z,961.45
2018-08-30T05:34:12.832Z,961.44
2018-08-30T05:35:11.981Z,961.44
2018-08-30T05:36:12.111Z,961.43
2018-08-30T05:37:11.916Z,961.40
2018-08-30T05:38:10.134Z,961.41
2018-08-30T05:39:12.169Z,961.46
2018-08-30T05:40:10.047Z,961.51
2018-08-30T05:41:11.919Z,961.59
2018-08-30T05:42:10.151Z,961.64
2018-08-30T05:45:36.685Z,961.62
2018-08-30T05:48:37.429Z,961.63
2018-08-30T05:50:44.482Z,961.70
2018-08-30T05:53:56.516Z,961.73
2018-08-30T05:56:40.985Z,961.81
2018-08-30T05:59:56.789Z,961.86
2018-08-30T06:00:41.530Z,961.80
2018-08-30T06:01:43.553Z,961.85
2018-08-30T06:02:42.008Z,961.88
2018-08-30T06:03:41.570Z,961.82
2018-08-30T06:04:41.556Z,961.86
2018-08-30T06:05:50.019Z,961.87
2018-08-30T06:07:43.545Z,961.87
2018-08-30T06:08:43.900Z,961.90
2018-08-30T06:10:29.185Z,961.87
2018-08-30T06:11:28.242Z,961.82
2018-08-30T06:13:26.709Z,961.87
2018-08-30T06:14:26.621Z,961.89
2018-08-30T06:18:19.073Z,961.97
2018-08-30T06:24:41.175Z,962.05
2018-08-30T06:25:41.194Z,962.05
2018-08-30T06:26:41.834Z,962.03
2018-08-30T06:27:41.058Z,962.02
2018-08-30T06:28:41.044Z,962.11
2018-08-30T06:32:12.382Z,962.20
2018-08-30T06:56:39.020Z,962.42
2018-08-30T06:57:38.934Z,962.42
2018-08-30T06:58:39.819Z,962.42
2018-08-30T07:00:03.876Z,962.44
2018-08-30T07:00:39.949Z,962.42
2018-08-30T07:01:39.327Z,962.45
2018-08-30T07:02:42.074Z,962.48
2018-08-30T07:03:50.374Z,962.46
2018-08-30T07:04:38.447Z,962.48
2018-08-30T07:05:39.876Z,962.50
2018-08-30T07:06:38.327Z,962.54
2018-08-30T07:07:38.262Z,962.58
2018-08-30T07:08:41.056Z,962.63
2018-08-30T07:12:51.883Z,962.66
2018-08-30T07:13:44.048Z,962.70
2018-08-30T07:14:44.676Z,962.70
2018-08-30T07:15:43.968Z,962.74
2018-08-30T07:24:03.308Z,963.00
2018-08-30T07:24:41.774Z,963.02
2018-08-30T07:25:41.737Z,963.07
2018-08-30T07:26:43.614Z,963.03
2018-08-30T07:27:42.421Z,963.09
2018-08-30T07:30:09.024Z,963.11
2018-08-30T07:31:07.127Z,963.16
2018-08-30T07:33:06.184Z,963.22
2018-08-30T07:34:04.665Z,963.28
2018-08-30T07:35:02.711Z,963.24
2018-08-30T07:36:04.601Z,963.30
2018-08-30T07:37:04.689Z,963.29
2018-08-30T07:38:02.749Z,963.28
2018-08-30T07:39:05.616Z,963.30
2018-08-30T07:40:03.674Z,963.31
2018-08-30T07:46:54.518Z,963.36
2018-08-30T07:50:38.560Z,963.54
2018-08-30T07:51:16.200Z,963.51
2018-08-30T07:52:20.608Z,963.54
2018-08-30T07:53:14.476Z,963.59
2018-08-30T07:54:15.664Z,963.55
2018-08-30T07:55:14.571Z,963.55
2018-08-30T07:56:18.185Z,963.59
2018-08-30T07:57:16.068Z,963.63
2018-08-30T07:58:50.755Z,963.65
2018-08-30T08:02:17.966Z,963.74
2018-08-30T08:03:30.612Z,963.73
2018-08-30T08:05:41.447Z,963.75
2018-08-30T08:06:41.288Z,963.74
2018-08-30T08:07:41.757Z,963.77
2018-08-30T08:08:41.226Z,963.80
2018-08-30T08:09:41.782Z,963.82
2018-08-30T08:12:39.272Z,963.84
2018-08-30T08:13:39.195Z,963.88
2018-08-30T08:14:39.122Z,963.92
2018-08-30T08:15:39.083Z,963.90
2018-08-30T08:16:39.072Z,963.98
2018-08-30T08:17:39.375Z,963.90
2018-08-30T08:18:39.260Z,963.90
2018-08-30T08:19:39.297Z,963.97
2018-08-30T08:20:53.089Z,963.98
2018-08-30T08:23:16.169Z,963.97
2018-08-30T08:24:22.110Z,964.04
2018-08-30T08:26:08.470Z,964.05
2018-08-30T08:27:06.350Z,964.03
2018-08-30T08:28:06.325Z,964.06
2018-08-30T08:29:06.328Z,964.07
2018-08-30T08:30:06.413Z,964.05
2018-08-30T08:31:06.341Z,964.07
2018-08-30T08:32:06.359Z,964.09
2018-08-30T08:33:06.259Z,964.10
2018-08-30T08:34:06.266Z,964.14
2018-08-30T08:35:06.264Z,964.14
2018-08-30T08:36:06.259Z,964.18
2018-08-30T08:37:06.261Z,964.15
2018-08-30T08:38:08.229Z,964.17
2018-08-30T08:39:06.307Z,964.20
2018-08-30T08:40:06.362Z,964.22
2018-08-30T08:41:06.304Z,964.22
2018-08-30T08:42:06.314Z,964.19
2018-08-30T08:43:08.249Z,964.26
2018-08-30T08:44:06.325Z,964.24
2018-08-30T08:45:08.287Z,964.28
2018-08-30T08:48:00.091Z,964.38
2018-08-30T08:50:39.985Z,964.39
2018-08-30T08:51:39.882Z,964.37
2018-08-30T08:52:39.941Z,964.41
2018-08-30T08:53:39.900Z,964.42
2018-08-30T08:54:39.926Z,964.46
2018-08-30T08:55:39.808Z,964.42
2018-08-30T08:56:39.781Z,964.41
2018-08-30T08:57:39.786Z,964.44
2018-08-30T08:58:39.819Z,964.45
2018-08-30T08:59:39.789Z,964.49
2018-08-30T09:00:39.778Z,964.56
2018-08-30T09:01:39.778Z,964.54
2018-08-30T09:02:39.804Z,964.52
2018-08-30T09:03:39.802Z,964.58
2018-08-30T09:10:40.443Z,964.67
2018-08-30T09:11:40.339Z,964.62
2018-08-30T09:12:40.278Z,964.59
2018-08-30T09:13:40.279Z,964.63
2018-08-30T09:14:40.276Z,964.63
2018-08-30T09:15:40.218Z,964.65
2018-08-30T09:16:40.210Z,964.62
2018-08-30T09:17:40.217Z,964.63
2018-08-30T09:18:40.222Z,964.66
2018-08-30T09:19:40.214Z,964.64
2018-08-30T09:20:40.233Z,964.71
2018-08-30T09:21:40.218Z,964.73
2018-08-30T09:22:41.007Z,964.69
2018-08-30T09:23:40.358Z,964.71
2018-08-30T09:24:40.316Z,964.70
2018-08-30T09:25:40.229Z,964.73
2018-08-30T09:26:40.370Z,964.76
2018-08-30T09:27:40.232Z,964.75
2018-08-30T09:28:40.245Z,964.74
2018-08-30T09:29:40.247Z,964.72
2018-08-30T09:30:40.237Z,964.78
2018-08-30T09:31:40.261Z,964.75
2018-08-30T09:32:40.246Z,964.81
2018-08-30T09:33:40.273Z,964.77
2018-08-30T09:34:40.251Z,964.78
2018-08-30T09:35:40.380Z,964.69
2018-08-30T09:36:40.246Z,964.75
2018-08-30T09:37:40.244Z,964.77
2018-08-30T09:38:40.975Z,964.77
2018-08-30T09:39:40.246Z,964.75
2018-08-30T09:40:40.252Z,964.80
2018-08-30T09:41:40.404Z,964.77
2018-08-30T09:42:40.254Z,964.80
2018-08-30T09:43:40.287Z,964.81
2018-08-30T09:44:40.295Z,964.83
2018-08-30T09:45:40.261Z,964.82
2018-08-30T09:46:40.289Z,964.85
2018-08-30T09:47:40.257Z,964.82
2018-08-30T09:48:40.292Z,964.82
2018-08-30T09:49:40.285Z,964.88
2018-08-30T09:50:40.261Z,964.82
2018-08-30T09:52:33.812Z,964.82
2018-08-30T09:53:33.704Z,964.89
2018-08-30T09:54:33.675Z,964.83
2018-08-30T09:55:33.724Z,964.91
2018-08-30T09:56:33.877Z,964.90
2018-08-30T09:57:33.698Z,964.91
2018-08-30T09:58:35.228Z,964.92
2018-08-30T09:59:33.721Z,964.89
2018-08-30T10:00:48.286Z,964.91
2018-08-30T10:01:33.707Z,964.91
2018-08-30T10:02:33.654Z,964.89
2018-08-30T10:03:35.320Z,964.93
2018-08-30T10:04:33.698Z,964.87
2018-08-30T10:05:33.779Z,964.90
2018-08-30T10:06:35.195Z,964.90
2018-08-30T10:07:33.658Z,964.90
2018-08-30T10:08:39.984Z,964.93
2018-08-30T10:09:33.664Z,964.94
2018-08-30T10:12:36.392Z,964.92
2018-08-30T10:36:45.085Z,965.08
2018-08-30T10:50:12.779Z,965.29
2018-08-30T10:55:51.952Z,965.29
2018-08-30T10:56:13.782Z,965.29
2018-08-30T11:04:21.859Z,965.29
2018-08-30T11:05:16.762Z,965.31
2018-08-30T11:06:11.851Z,965.29
2018-08-30T11:07:11.840Z,965.28
2018-08-30T11:08:11.850Z,965.29
2018-08-30T11:09:18.636Z,965.26
2018-08-30T11:11:52.155Z,965.29
2018-08-30T11:12:52.307Z,965.29
2018-08-30T11:14:45.017Z,965.32
2018-08-30T11:15:46.802Z,965.32
2018-08-30T11:17:38.324Z,965.36
2018-08-30T11:18:38.534Z,965.40
2018-08-30T11:20:31.436Z,965.30
2018-08-30T11:21:31.355Z,965.37
2018-08-30T11:22:31.371Z,965.29
2018-08-30T11:23:31.389Z,965.34
2018-08-30T11:24:31.329Z,965.36
2018-08-30T11:25:31.310Z,965.31
2018-08-30T11:26:31.289Z,965.31
2018-08-30T11:27:31.294Z,965.34
2018-08-30T11:28:31.328Z,965.29
2018-08-30T11:29:31.301Z,965.27
2018-08-30T11:30:31.331Z,965.31
2018-08-30T11:31:31.321Z,965.31
2018-08-30T11:32:31.306Z,965.31
2018-08-30T11:33:31.307Z,965.25
2018-08-30T11:34:31.318Z,965.24
2018-08-30T11:35:31.349Z,965.28
2018-08-30T11:36:31.324Z,965.29
2018-08-30T11:37:31.350Z,965.26
2018-08-30T11:38:31.367Z,965.29
2018-08-30T11:39:31.326Z,965.28
2018-08-30T11:40:31.323Z,965.33
2018-08-30T11:41:31.523Z,965.35
2018-08-30T11:42:31.333Z,965.37
2018-08-30T11:43:31.369Z,965.32
2018-08-30T11:44:31.364Z,965.35
2018-08-30T11:45:31.369Z,965.38
2018-08-30T11:46:31.348Z,965.44
2018-08-30T11:47:31.355Z,965.39
2018-08-30T11:48:31.353Z,965.47
2018-08-30T11:49:31.361Z,965.44
2018-08-30T11:50:31.381Z,965.43
2018-08-30T11:51:31.363Z,965.51
2018-08-30T11:52:31.393Z,965.47
2018-08-30T11:53:31.368Z,965.44
2018-08-30T11:54:31.416Z,965.53
2018-08-30T11:55:31.373Z,965.53
2018-08-30T11:56:31.381Z,965.56
2018-08-30T11:57:31.386Z,965.62
2018-08-30T11:58:31.433Z,965.59
2018-08-30T11:59:31.390Z,965.57
2018-08-30T12:00:31.387Z,965.62
2018-08-30T12:01:31.396Z,965.58
2018-08-30T12:02:31.415Z,965.56
2018-08-30T12:03:31.397Z,965.59
2018-08-30T12:04:31.438Z,965.64
2018-08-30T12:05:31.405Z,965.68
2018-08-30T12:06:31.468Z,965.62
2018-08-30T12:07:31.427Z,965.66
2018-08-30T12:08:31.505Z,965.67
2018-08-30T12:09:31.439Z,965.63
2018-08-30T12:10:31.578Z,965.66
2018-08-30T12:11:31.473Z,965.65
2018-08-30T12:12:31.426Z,965.71
2018-08-30T12:13:31.429Z,965.73
2018-08-30T12:14:31.430Z,965.68
2018-08-30T12:15:31.431Z,965.70
2018-08-30T12:16:31.442Z,965.70
2018-08-30T12:17:31.490Z,965.67
2018-08-30T12:18:31.443Z,965.69
2018-08-30T12:19:31.457Z,965.70
2018-08-30T12:20:31.532Z,965.66
2018-08-30T12:21:31.457Z,965.63
2018-08-30T12:22:31.456Z,965.67
2018-08-30T12:23:31.466Z,965.72
2018-08-30T12:24:33.365Z,965.68
2018-08-30T12:25:31.493Z,965.68
2018-08-30T12:26:31.503Z,965.73
2018-08-30T12:27:31.514Z,965.79
2018-08-30T12:28:31.545Z,965.79
2018-08-30T12:29:31.487Z,965.76
2018-08-30T12:30:31.520Z,965.82
2018-08-30T12:31:31.577Z,965.80
2018-08-30T12:32:31.609Z,965.74
2018-08-30T12:33:33.356Z,965.77
2018-08-30T12:34:31.607Z,965.78
2018-08-30T12:35:31.657Z,965.81
2018-08-30T12:36:31.546Z,965.82
2018-08-30T12:37:31.568Z,965.77
2018-08-30T12:38:31.552Z,965.82
2018-08-30T12:39:31.586Z,965.70
2018-08-30T12:40:31.681Z,965.79
2018-08-30T12:41:31.533Z,965.72
2018-08-30T12:42:31.615Z,965.73
2018-08-30T12:43:33.513Z,965.79
2018-08-30T12:44:31.602Z,965.80
2018-08-30T12:45:31.543Z,965.83
2018-08-30T12:46:31.586Z,965.83
2018-08-30T12:47:31.555Z,965.81
2018-08-30T12:48:31.559Z,965.78
2018-08-30T12:49:31.560Z,965.89
2018-08-30T12:50:31.690Z,965.86
2018-08-30T12:51:31.767Z,965.86
2018-08-30T12:52:31.676Z,965.91
2018-08-30T12:53:31.679Z,965.88
2018-08-30T12:54:31.687Z,965.90
2018-08-30T12:55:31.678Z,965.90
2018-08-30T12:56:31.628Z,965.92
2018-08-30T12:57:31.754Z,965.91
2018-08-30T12:58:31.780Z,965.92
2018-08-30T12:59:31.741Z,965.89
2018-08-30T13:00:31.711Z,965.87
2018-08-30T13:01:31.763Z,965.88
2018-08-30T13:02:31.844Z,965.91
2018-08-30T13:03:31.744Z,965.91
2018-08-30T13:04:31.750Z,965.87
2018-08-30T13:05:31.896Z,965.91
2018-08-30T13:06:31.933Z,965.87
2018-08-30T13:07:31.857Z,965.90
2018-08-30T13:08:31.812Z,965.93
2018-08-30T13:09:31.855Z,965.90
2018-08-30T13:10:31.847Z,966.00
2018-08-30T13:11:32.068Z,965.98
2018-08-30T13:12:33.299Z,965.99
2018-08-30T13:13:32.131Z,966.00
2018-08-30T13:14:32.019Z,966.02
2018-08-30T13:15:32.000Z,966.03
2018-08-30T13:16:33.530Z,966.03
2018-08-30T13:17:31.692Z,966.00
2018-08-30T13:18:31.942Z,966.03
2018-08-30T13:19:32.008Z,966.02
2018-08-30T13:20:31.956Z,966.01
2018-08-30T13:21:31.825Z,966.03
2018-08-30T13:22:32.088Z,966.08
2018-08-30T13:23:31.930Z,966.09
2018-08-30T13:24:31.933Z,966.02
2018-08-30T13:25:34.803Z,966.09
2018-08-30T13:26:33.503Z,966.11
2018-08-30T13:27:31.992Z,966.11
2018-08-30T13:28:31.958Z,966.11
2018-08-30T13:29:32.040Z,966.16
2018-08-30T13:30:32.057Z,966.18
2018-08-30T13:31:32.193Z,966.16
2018-08-30T13:32:32.107Z,966.13
2018-08-30T13:33:31.985Z,966.16
2018-08-30T13:34:32.183Z,966.13
2018-08-30T13:35:32.028Z,966.10
2018-08-30T13:36:33.720Z,966.15
2018-08-30T13:37:32.222Z,966.16
2018-08-30T13:38:32.162Z,966.18
2018-08-30T13:39:33.794Z,966.18
2018-08-30T13:40:42.436Z,966.16
2018-08-30T13:46:26.133Z,966.23
2018-08-30T13:47:16.790Z,966.20
2018-08-30T13:48:18.729Z,966.21
2018-08-30T13:49:16.650Z,966.15
2018-08-30T13:50:16.717Z,966.18
2018-08-30T13:51:16.895Z,966.16
2018-08-30T13:52:17.284Z,966.13
2018-08-30T13:53:18.102Z,966.15
2018-08-30T13:54:48.365Z,966.16
2018-08-30T13:57:20.905Z,966.16
2018-08-30T13:58:19.947Z,966.22
2018-08-30T13:59:20.190Z,966.23
2018-08-30T14:00:20.400Z,966.27
2018-08-30T14:01:21.336Z,966.25
2018-08-30T14:02:20.413Z,966.24
2018-08-30T14:05:07.862Z,966.23
2018-08-30T14:06:06.881Z,966.27
2018-08-30T14:07:06.765Z,966.25
2018-08-30T14:08:06.795Z,966.27
2018-08-30T14:09:08.746Z,966.21
2018-08-30T14:10:06.953Z,966.20
2018-08-30T14:11:06.904Z,966.24
2018-08-30T14:12:08.032Z,966.25
2018-08-30T14:13:16.859Z,966.20
2018-08-30T14:14:07.017Z,966.17
2018-08-30T14:15:15.043Z,966.26
2018-08-30T14:16:09.488Z,966.21
2018-08-30T14:17:08.648Z,966.18
2018-08-30T14:18:08.438Z,966.15
2018-08-30T14:19:07.726Z,966.19
2018-08-30T14:20:06.877Z,966.13
2018-08-30T14:21:41.193Z,966.17
2018-08-30T14:30:19.598Z,966.17
2018-08-30T14:31:15.943Z,966.14
2018-08-30T14:33:44.757Z,966.21
2018-08-30T14:34:24.817Z,966.21
2018-08-30T14:36:23.130Z,966.21
2018-08-30T14:37:18.590Z,966.19
2018-08-30T14:39:58.663Z,966.22
2018-08-30T14:43:00.406Z,966.16
2018-08-30T14:44:00.351Z,966.14
2018-08-30T14:45:17.121Z,966.12
2018-08-30T14:49:03.511Z,966.27
2018-08-30T14:52:44.097Z,966.27
2018-08-30T14:54:52.151Z,966.21
2018-08-30T14:55:52.097Z,966.30
2018-08-30T14:56:52.075Z,966.25
2018-08-30T14:57:52.082Z,966.24
2018-08-30T14:58:52.082Z,966.22
2018-08-30T14:59:52.078Z,966.27
2018-08-30T15:00:52.098Z,966.27
2018-08-30T15:01:52.091Z,966.21
2018-08-30T15:02:52.156Z,966.24
2018-08-30T15:05:45.492Z,966.27
2018-08-30T15:10:39.057Z,966.31
2018-08-30T15:13:51.386Z,966.32
2018-08-30T15:30:45.512Z,966.37
2018-08-30T15:31:42.904Z,966.33
2018-08-30T15:32:44.023Z,966.35
2018-08-30T15:34:09.486Z,966.36
2018-08-30T15:36:55.608Z,966.38
2018-08-30T15:40:26.663Z,966.44
2018-08-30T15:46:34.741Z,966.44
2018-08-30T15:47:05.721Z,966.44
2018-08-30T15:48:23.523Z,966.48
2018-08-30T15:50:24.563Z,966.50
2018-08-30T15:53:21.036Z,966.55
2018-08-30T15:54:21.063Z,966.56
2018-08-30T15:55:21.001Z,966.51
2018-08-30T15:56:20.964Z,966.54
2018-08-30T15:57:21.121Z,966.56
2018-08-30T15:58:21.062Z,966.53
2018-08-30T15:59:21.218Z,966.49
2018-08-30T16:00:21.916Z,966.48
2018-08-30T16:01:21.005Z,966.48
2018-08-30T16:02:21.000Z,966.46
2018-08-30T16:03:20.977Z,966.46
2018-08-30T16:04:20.977Z,966.46
2018-08-30T16:05:21.106Z,966.47
2018-08-30T16:06:20.985Z,966.40
2018-08-30T16:07:21.054Z,966.41
2018-08-30T16:08:20.999Z,966.38
2018-08-30T16:09:20.999Z,966.41
2018-08-30T16:10:20.999Z,966.35
2018-08-30T16:11:21.138Z,966.37
2018-08-30T16:12:21.002Z,966.34
2018-08-30T16:13:21.005Z,966.36
2018-08-30T16:14:21.126Z,966.34
2018-08-30T16:15:21.839Z,966.33
2018-08-30T16:16:29.358Z,966.34
2018-08-30T16:20:04.259Z,966.36
2018-08-30T16:20:56.987Z,966.31
2018-08-30T16:21:56.877Z,966.33
2018-08-30T16:22:56.944Z,966.37
2018-08-30T16:25:25.664Z,966.34
2018-08-30T16:28:03.498Z,966.31
2018-08-30T16:29:36.855Z,966.36
2018-08-30T16:30:04.981Z,966.30
2018-08-30T16:31:06.987Z,966.43
2018-08-30T16:32:03.329Z,966.38
2018-08-30T16:33:11.469Z,966.38
2018-08-30T16:34:57.534Z,966.37
2018-08-30T16:36:06.898Z,966.42
2018-08-30T16:37:52.642Z,966.43
2018-08-30T16:38:50.853Z,966.42
2018-08-30T16:39:50.925Z,966.39
2018-08-30T16:40:50.853Z,966.37
2018-08-30T16:41:51.142Z,966.39
2018-08-30T16:42:50.864Z,966.39
2018-08-30T16:43:52.350Z,966.39
2018-08-30T16:44:50.874Z,966.39
2018-08-30T16:45:50.847Z,966.38
2018-08-30T16:46:50.820Z,966.36
2018-08-30T16:47:52.038Z,966.33
2018-08-30T16:48:53.262Z,966.37
2018-08-30T16:49:50.938Z,966.30
2018-08-30T16:50:58.387Z,966.32
2018-08-30T16:52:52.976Z,966.35
2018-08-30T16:55:30.037Z,966.34
2018-08-30T16:59:08.534Z,966.39
2018-08-30T17:01:48.580Z,966.42
2018-08-30T17:02:48.600Z,966.39
2018-08-30T17:04:46.362Z,966.39
2018-08-30T17:05:46.187Z,966.39
2018-08-30T17:07:39.552Z,966.35
2018-08-30T17:08:41.667Z,966.31
2018-08-30T17:09:39.587Z,966.31
2018-08-30T17:10:39.467Z,966.38
2018-08-30T17:11:39.412Z,966.32
2018-08-30T17:12:39.458Z,966.34
2018-08-30T17:13:46.590Z,966.33
2018-08-30T17:15:34.123Z,966.33
2018-08-30T17:16:34.041Z,966.33
2018-08-30T17:17:35.597Z,966.36
2018-08-30T17:18:33.883Z,966.35
2018-08-30T17:19:33.824Z,966.39
2018-08-30T17:20:35.765Z,966.38
2018-08-30T17:21:33.843Z,966.35
2018-08-30T17:22:33.831Z,966.35
2018-08-30T17:23:33.830Z,966.41
2018-08-30T17:24:33.836Z,966.38
2018-08-30T17:25:33.840Z,966.34
2018-08-30T17:26:33.843Z,966.41
2018-08-30T17:27:33.850Z,966.42
2018-08-30T17:28:33.878Z,966.43
2018-08-30T17:29:33.857Z,966.39
2018-08-30T17:30:33.881Z,966.41
2018-08-30T17:31:33.895Z,966.41
2018-08-30T17:32:33.964Z,966.45
2018-08-30T17:33:33.909Z,966.45
2018-08-30T17:34:35.785Z,966.41
2018-08-30T17:35:33.868Z,966.44
2018-08-30T17:36:33.929Z,966.39
2018-08-30T17:37:41.420Z,966.43
2018-08-30T17:40:25.029Z,966.47
2018-08-30T17:40:44.017Z,966.46
2018-08-30T17:41:42.356Z,966.51
2018-08-30T17:42:42.135Z,966.54
2018-08-30T17:43:43.455Z,966.47
2018-08-30T17:44:43.846Z,966.49
2018-08-30T17:45:42.184Z,966.50
2018-08-30T17:46:45.909Z,966.47
2018-08-30T17:47:42.133Z,966.51
2018-08-30T17:50:55.905Z,966.53
2018-08-30T17:51:13.964Z,966.50
2018-08-30T18:04:06.134Z,966.66
2018-08-30T18:05:04.529Z,966.64
2018-08-30T18:06:18.112Z,966.67